createdAt,value
2022-08-05T00:02:11.590Z,101498.28
2022-08-05T00:04:40.274Z,101497.25
2022-08-05T00:07:21.755Z,101514.22
2022-08-05T00:09:55.414Z,101518.59
2022-08-05T00:12:24.634Z,101507.97
2022-08-05T00:14:52.136Z,101499.78
2022-08-05T00:17:20.371Z,101500.59
2022-08-05T00:19:57.440Z,101486.75
2022-08-05T00:22:30.975Z,101482.25
2022-08-05T00:24:58.470Z,101485.25
2022-08-05T00:27:36.222Z,101482.81
2022-08-05T00:30:04.558Z,101487.53
2022-08-05T00:32:32.162Z,101482.00
2022-08-05T00:35:07.582Z,101477.75
2022-08-05T00:37:53.349Z,101470.81
2022-08-05T00:40:28.142Z,101468.16
2022-08-05T00:42:58.908Z,101476.69
2022-08-05T00:45:38.254Z,101479.00
2022-08-05T00:48:07.482Z,101479.25
2022-08-05T00:50:35.059Z,101484.78
2022-08-05T00:53:03.242Z,101486.63
2022-08-05T00:55:42.886Z,101509.09
2022-08-05T00:58:13.216Z,101497.69
2022-08-05T01:00:42.170Z,101490.97
2022-08-05T01:03:10.418Z,101452.94
2022-08-05T01:05:49.939Z,101479.19
2022-08-05T01:08:41.106Z,101484.28
2022-08-05T01:11:10.517Z,101487.75
2022-08-05T01:13:57.324Z,101492.81
2022-08-05T01:16:30.280Z,101504.03
2022-08-05T01:19:00.825Z,101493.03
2022-08-05T01:21:43.040Z,101492.25
2022-08-05T01:24:27.128Z,101496.28
2022-08-05T01:27:17.903Z,101497.75
2022-08-05T01:29:49.845Z,101488.78
2022-08-05T01:32:21.901Z,101494.59
2022-08-05T01:34:50.722Z,101495.41
2022-08-05T01:37:24.871Z,101506.78
2022-08-05T01:39:54.829Z,101509.66
2022-08-05T01:42:27.816Z,101518.91
2022-08-05T01:44:57.108Z,101526.88
2022-08-05T01:47:39.038Z,101519.72
2022-08-05T01:50:09.196Z,101519.06
2022-08-05T01:52:44.094Z,101519.06
2022-08-05T01:55:13.871Z,101524.75
2022-08-05T01:58:09.265Z,101528.44
2022-08-05T02:00:32.449Z,101532.09
2022-08-05T02:03:03.685Z,101529.44
2022-08-05T02:05:34.104Z,101532.09
2022-08-05T02:08:02.146Z,101522.28
2022-08-05T02:10:35.736Z,101513.53
2022-08-05T02:13:15.720Z,101515.53
2022-08-05T02:15:47.664Z,101511.09
2022-08-05T02:18:31.094Z,101513.75
2022-08-05T02:21:03.138Z,101522.16
2022-08-05T02:23:33.913Z,101516.63
2022-08-05T02:26:05.368Z,101524.81
2022-08-05T02:28:38.409Z,101517.06
2022-08-05T02:31:14.278Z,101513.28
2022-08-05T02:33:45.078Z,101513.88
2022-08-05T02:36:17.884Z,101507.81
2022-08-05T02:38:52.807Z,101510.25
2022-08-05T02:41:23.009Z,101512.25
2022-08-05T02:44:02.347Z,101514.75
2022-08-05T02:46:35.570Z,101457.34
2022-08-05T02:49:12.011Z,101510.81
2022-08-05T02:52:01.231Z,101512.28
2022-08-05T02:54:34.857Z,101509.03
2022-08-05T02:57:10.230Z,101504.31
2022-08-05T02:59:54.125Z,101499.47
2022-08-05T03:02:25.363Z,101497.03
2022-08-05T03:04:56.060Z,101497.03
2022-08-05T03:07:40.422Z,101490.81
2022-08-05T03:10:13.286Z,101492.22
2022-08-05T03:12:41.274Z,101503.25
2022-08-05T03:15:12.444Z,101492.28
2022-08-05T03:17:44.764Z,101497.00
2022-08-05T03:20:13.480Z,101501.41
2022-08-05T03:22:44.059Z,101507.31
2022-08-05T03:25:33.939Z,101504.28
2022-08-05T03:28:02.506Z,101505.91
2022-08-05T03:30:34.087Z,101516.00
2022-08-05T03:33:05.690Z,101507.84
2022-08-05T03:35:40.754Z,101509.91
2022-08-05T03:38:09.406Z,101510.94
2022-08-05T03:40:40.585Z,101500.78
2022-08-05T03:43:58.868Z,101501.44
2022-08-05T03:45:57.842Z,101500.47
2022-08-05T03:48:29.145Z,101504.97
2022-08-05T03:52:35.473Z,101500.47
2022-08-05T03:56:03.934Z,101503.81
2022-08-05T03:56:41.462Z,101515.84
2022-08-05T03:59:10.669Z,101515.84
2022-08-05T04:01:40.966Z,101524.50
2022-08-05T04:04:11.351Z,101524.13
2022-08-05T04:06:47.791Z,101527.59
2022-08-05T04:09:25.853Z,101520.66
2022-08-05T04:11:53.908Z,101525.22
2022-08-05T04:14:30.179Z,101542.34
2022-08-05T04:16:59.281Z,101531.38
2022-08-05T04:19:28.365Z,101533.00
2022-08-05T04:22:08.964Z,101527.50
2022-08-05T04:24:44.354Z,101530.56
2022-08-05T04:27:19.772Z,101528.56
2022-08-05T04:30:07.700Z,101526.59
2022-08-05T04:32:36.494Z,101525.41
2022-08-05T04:35:07.159Z,101518.88
2022-08-05T04:38:02.604Z,101512.97
2022-08-05T04:40:34.165Z,101518.47
2022-08-05T04:43:01.601Z,101522.59
2022-08-05T04:45:47.884Z,101525.91
2022-08-05T04:48:27.084Z,101474.50
2022-08-05T04:51:01.671Z,101526.31
2022-08-05T04:53:38.599Z,101532.91
2022-08-05T04:56:33.554Z,101533.34
2022-08-05T04:58:54.499Z,101534.78
2022-08-05T05:02:06.425Z,101529.34
2022-08-05T05:04:09.525Z,101534.44
2022-08-05T05:06:49.154Z,101537.09
2022-08-05T05:09:19.483Z,101544.66
2022-08-05T05:11:55.473Z,101539.00
2022-08-05T05:14:28.036Z,101535.75
2022-08-05T05:16:59.649Z,101533.91
2022-08-05T05:19:36.451Z,101528.19
2022-08-05T05:22:23.135Z,101534.28
2022-08-05T05:24:58.433Z,101527.38
2022-08-05T05:27:44.331Z,101528.81
2022-08-05T05:30:28.641Z,101536.94
2022-08-05T05:33:00.598Z,101537.75
2022-08-05T05:35:37.643Z,101541.41
2022-08-05T05:38:09.409Z,101546.28
2022-08-05T05:40:47.945Z,101544.47
2022-08-05T05:43:27.712Z,101551.78
2022-08-05T05:46:06.863Z,101550.16
2022-08-05T05:48:42.119Z,101550.16
2022-08-05T05:51:15.527Z,101542.03
2022-08-05T05:53:54.355Z,101539.94
2022-08-05T05:56:32.708Z,101536.69
2022-08-05T05:59:03.210Z,101543.16
2022-08-05T06:01:37.463Z,101542.09
2022-08-05T06:04:06.079Z,101543.91
2022-08-05T06:06:34.869Z,101536.59
2022-08-05T06:09:04.286Z,101543.06
2022-08-05T06:11:31.798Z,101537.88
2022-08-05T06:14:00.494Z,101540.53
2022-08-05T06:16:33.073Z,101543.78
2022-08-05T06:19:05.718Z,101542.50
2022-08-05T06:21:37.658Z,101546.16
2022-08-05T06:24:11.571Z,101543.22
2022-08-05T06:26:40.106Z,101552.13
2022-08-05T06:29:43.086Z,101553.69
2022-08-05T06:32:25.428Z,101562.16
2022-08-05T06:34:56.117Z,101561.25
2022-08-05T06:37:57.877Z,101569.00
2022-08-05T06:40:13.878Z,101570.69
2022-08-05T06:42:45.441Z,101569.63
2022-08-05T06:45:20.672Z,101581.47
2022-08-05T06:48:44.092Z,101580.81
2022-08-05T06:50:36.359Z,101587.63
2022-08-05T06:53:11.398Z,101586.31
2022-08-05T06:55:51.614Z,101579.50
2022-08-05T06:58:29.873Z,101594.28
2022-08-05T07:01:03.232Z,101586.16
2022-08-05T07:03:32.837Z,101589.91
2022-08-05T07:06:05.435Z,101597.06
2022-08-05T07:08:33.818Z,101596.25
2022-08-05T07:11:02.813Z,101594.28
2022-08-05T07:13:57.711Z,101591.50
2022-08-05T07:18:01.085Z,101560.22
2022-08-05T07:20:16.850Z,101601.91
2022-08-05T07:22:22.038Z,101589.28
2022-08-05T07:24:56.768Z,101600.34
2022-08-05T07:27:27.279Z,101601.88
2022-08-05T07:30:24.670Z,101590.63
2022-08-05T07:32:54.424Z,101610.94
2022-08-05T07:36:01.876Z,101614.13
2022-08-05T07:38:12.457Z,101620.38
2022-08-05T07:41:00.329Z,101628.50
2022-08-05T07:43:31.726Z,101624.63
2022-08-05T07:46:02.546Z,101628.78
2022-08-05T07:49:00.552Z,101637.56
2022-08-05T07:51:23.300Z,101639.72
2022-08-05T07:54:04.099Z,101636.25
2022-08-05T07:57:02.821Z,101649.81
2022-08-05T07:59:23.291Z,101642.72
2022-08-05T08:02:07.197Z,101647.72
2022-08-05T08:04:42.988Z,101652.34
2022-08-05T08:07:12.683Z,101653.00
2022-08-05T08:09:40.232Z,101655.97
2022-08-05T08:12:36.931Z,101663.72
2022-08-05T08:14:57.089Z,101661.66
2022-08-05T08:17:30.192Z,101663.34
2022-08-05T08:20:43.664Z,101671.44
2022-08-05T08:22:51.163Z,101681.63
2022-08-05T08:27:54.758Z,101682.06
2022-08-05T08:30:32.770Z,101684.47
2022-08-05T08:33:08.554Z,101689.56
2022-08-05T08:35:52.729Z,101689.78
2022-08-05T08:38:32.302Z,101685.72
2022-08-05T08:41:05.636Z,101693.13
2022-08-05T08:45:17.760Z,101690.06
2022-08-05T08:46:23.953Z,101694.94
2022-08-05T08:49:06.256Z,101688.47
2022-08-05T08:52:05.805Z,101694.81
2022-08-05T08:54:31.532Z,101690.91
2022-08-05T08:56:59.977Z,101694.78
2022-08-05T08:59:33.521Z,101700.66
2022-08-05T09:02:06.197Z,101695.69
2022-08-05T09:04:58.224Z,101700.53
2022-08-05T09:07:28.392Z,101697.56
2022-08-05T09:09:57.066Z,101704.00
2022-08-05T09:12:27.740Z,101713.78
2022-08-05T09:15:03.934Z,101713.53
2022-08-05T09:17:40.622Z,101718.22
2022-08-05T09:20:10.655Z,101727.94
2022-08-05T09:23:05.360Z,101734.91
2022-08-05T09:26:02.418Z,101726.06
2022-08-05T09:28:24.469Z,101732.91
2022-08-05T09:31:22.661Z,101732.69
2022-08-05T09:33:54.769Z,101739.03
2022-08-05T09:36:27.888Z,101739.66
2022-08-05T09:39:02.378Z,101746.72
2022-08-05T09:41:33.245Z,101757.44
2022-08-05T09:44:06.760Z,101745.91
2022-08-05T09:46:35.205Z,101747.09
2022-08-05T09:49:18.985Z,101752.56
2022-08-05T09:51:49.380Z,101751.09
2022-08-05T09:54:21.174Z,101759.03
2022-08-05T09:56:57.424Z,101762.59
2022-08-05T09:59:27.592Z,101764.81
2022-08-05T10:01:58.295Z,101765.84
2022-08-05T10:04:35.373Z,101766.47
2022-08-05T10:07:06.126Z,101768.56
2022-08-05T10:10:14.662Z,101773.81
2022-08-05T10:12:49.451Z,101769.28
2022-08-05T10:15:20.060Z,101779.56
2022-08-05T10:18:04.307Z,101774.59
2022-08-05T10:20:35.301Z,101779.16
2022-08-05T10:23:03.322Z,101785.59
2022-08-05T10:25:30.975Z,101794.34
2022-08-05T10:28:13.360Z,101790.31
2022-08-05T10:32:51.958Z,101791.22
2022-08-05T10:33:34.258Z,101796.25
2022-08-05T10:36:04.985Z,101797.88
2022-08-05T10:38:33.406Z,101808.88
2022-08-05T10:41:03.636Z,101803.56
2022-08-05T10:43:36.478Z,101806.78
2022-08-05T10:46:06.600Z,101811.28
2022-08-05T10:48:38.456Z,101805.72
2022-08-05T10:51:28.732Z,101808.69
2022-08-05T10:53:58.482Z,101815.63
2022-08-05T10:56:30.076Z,101812.19
2022-08-05T10:59:07.230Z,101826.56
2022-08-05T11:02:07.319Z,101831.19
2022-08-05T11:04:44.307Z,101823.97
2022-08-05T11:07:16.299Z,101824.69
2022-08-05T11:09:47.564Z,101831.84
2022-08-05T11:12:33.558Z,101837.41
2022-08-05T11:15:19.237Z,101834.25
2022-08-05T11:17:58.205Z,101840.91
2022-08-05T11:20:37.359Z,101797.75
2022-08-05T11:23:25.248Z,101850.25
2022-08-05T11:26:09.015Z,101855.69
2022-08-05T11:28:43.065Z,101860.72
2022-08-05T11:31:57.115Z,101866.31
2022-08-05T11:34:16.429Z,101871.00
2022-08-05T11:36:52.803Z,101837.28
2022-08-05T11:39:39.129Z,101875.88
2022-08-05T11:42:18.225Z,101878.03
2022-08-05T11:44:54.055Z,101895.16
2022-08-05T11:47:48.611Z,101900.38
2022-08-05T11:50:10.081Z,101903.53
2022-08-05T11:52:44.133Z,101898.22
2022-08-05T11:55:14.571Z,101906.63
2022-08-05T11:58:09.175Z,101914.97
2022-08-05T12:00:38.515Z,101919.09
2022-08-05T12:03:24.069Z,101916.59
2022-08-05T12:05:58.930Z,101918.94
2022-08-05T12:08:27.485Z,101912.69
2022-08-05T12:10:58.785Z,101915.50
2022-08-05T12:13:48.678Z,101911.75
2022-08-05T12:16:18.737Z,101910.59
2022-08-05T12:18:49.524Z,101909.63
2022-08-05T12:21:24.454Z,101916.16
2022-08-05T12:23:55.216Z,101918.47
2022-08-05T12:26:23.797Z,101919.88
2022-08-05T12:28:52.859Z,101935.91
2022-08-05T12:31:23.487Z,101924.72
2022-08-05T12:34:09.426Z,101925.16
2022-08-05T12:36:48.271Z,101934.81
2022-08-05T12:39:17.600Z,101934.69
2022-08-05T12:41:45.964Z,101934.69
2022-08-05T12:44:28.531Z,101936.13
2022-08-05T12:47:01.883Z,101943.91
2022-08-05T12:50:02.037Z,101944.31
2022-08-05T12:52:33.853Z,101946.47
2022-08-05T12:55:17.042Z,101937.69
2022-08-05T12:58:38.415Z,101942.94
2022-08-05T13:02:01.083Z,101947.34
2022-08-05T13:03:22.526Z,101946.31
2022-08-05T13:05:50.451Z,101940.63
2022-08-05T13:08:19.030Z,101940.84
2022-08-05T13:10:50.677Z,101949.34
2022-08-05T13:14:06.742Z,101955.13
2022-08-05T13:16:15.277Z,101951.13
2022-08-05T13:18:51.299Z,101960.13
2022-08-05T13:21:18.737Z,101965.09
2022-08-05T13:23:50.629Z,101960.25
2022-08-05T13:26:24.077Z,101960.97
2022-08-05T13:28:59.148Z,101950.94
2022-08-05T13:31:33.731Z,101958.28
2022-08-05T13:34:21.030Z,101959.44
2022-08-05T13:36:52.998Z,101971.19
2022-08-05T13:40:13.896Z,101975.38
2022-08-05T13:42:14.531Z,101973.25
2022-08-05T13:44:45.527Z,101970.19
2022-08-05T13:47:35.429Z,101979.31
2022-08-05T13:50:04.402Z,101976.34
2022-08-05T13:52:35.201Z,101976.19
2022-08-05T13:55:02.807Z,101977.34
2022-08-05T13:57:48.742Z,101976.25
2022-08-05T14:00:26.921Z,101976.06
2022-08-05T14:02:56.285Z,101979.91
2022-08-05T14:05:48.287Z,101995.47
2022-08-05T14:08:21.065Z,101998.19
2022-08-05T14:11:03.277Z,102005.56
2022-08-05T14:13:42.755Z,102003.91
2022-08-05T14:16:11.643Z,102013.94
2022-08-05T14:18:45.480Z,102011.13
2022-08-05T14:22:08.935Z,102021.44
2022-08-05T14:24:00.666Z,102025.13
2022-08-05T14:26:37.054Z,102022.13
2022-08-05T14:29:15.878Z,102029.13
2022-08-05T14:31:54.579Z,102028.06
2022-08-05T14:34:34.950Z,102033.97
2022-08-05T14:37:03.056Z,102039.06
2022-08-05T14:39:30.485Z,102034.19
2022-08-05T14:42:29.255Z,102039.78
2022-08-05T14:44:57.009Z,102039.34
2022-08-05T14:48:03.574Z,102039.03
2022-08-05T14:50:18.407Z,102037.34
2022-08-05T14:52:53.044Z,102032.50
2022-08-05T14:55:21.285Z,102046.44
2022-08-05T14:57:54.570Z,102048.63
2022-08-05T15:00:28.019Z,102048.53
2022-08-05T15:02:56.953Z,102053.81
2022-08-05T15:05:30.127Z,102047.28
2022-08-05T15:08:38.074Z,102048.72
2022-08-05T15:11:02.334Z,102053.59
2022-08-05T15:13:46.258Z,102060.56
2022-08-05T15:16:17.638Z,102060.19
2022-08-05T15:18:47.245Z,102053.91
2022-08-05T15:21:16.218Z,102068.31
2022-08-05T15:23:48.606Z,102066.31
2022-08-05T15:26:17.489Z,102067.66
2022-08-05T15:28:59.795Z,102065.56
2022-08-05T15:31:34.903Z,102060.59
2022-08-05T15:34:19.057Z,102069.28
2022-08-05T15:36:51.462Z,102073.59
2022-08-05T15:40:59.594Z,102082.63
2022-08-05T15:44:54.968Z,102071.09
2022-08-05T15:47:23.675Z,102082.19
2022-08-05T15:52:29.578Z,102077.25
2022-08-05T15:55:16.289Z,102079.88
2022-08-05T15:57:45.058Z,102092.03
2022-08-05T16:00:13.089Z,102043.69
2022-08-05T16:02:44.438Z,102087.59
2022-08-05T16:05:11.930Z,102095.94
2022-08-05T16:07:46.205Z,102094.25
2022-08-05T16:10:14.200Z,102099.75
2022-08-05T16:12:42.394Z,102103.56
2022-08-05T16:15:10.335Z,102106.75
2022-08-05T16:17:57.440Z,102105.50
2022-08-05T16:20:25.579Z,102105.19
2022-08-05T16:22:57.495Z,102065.34
2022-08-05T16:25:32.069Z,102100.50
2022-08-05T16:28:06.028Z,102109.75
2022-08-05T16:30:34.229Z,102111.72
2022-08-05T16:33:03.760Z,102107.66
2022-08-05T16:35:33.731Z,102105.53
2022-08-05T16:38:18.834Z,102119.19
2022-08-05T16:40:59.842Z,102118.09
2022-08-05T16:43:29.030Z,102125.34
2022-08-05T16:46:05.266Z,102127.09
2022-08-05T16:48:35.969Z,102130.47
2022-08-05T16:51:03.940Z,102135.78
2022-08-05T16:54:03.155Z,102137.69
2022-08-05T16:56:27.351Z,102137.00
2022-08-05T16:58:54.833Z,102138.16
2022-08-05T17:01:24.247Z,102139.13
2022-08-05T17:03:52.165Z,102138.94
2022-08-05T17:06:19.759Z,102146.47
2022-08-05T17:08:53.582Z,102151.69
2022-08-05T17:11:23.538Z,102146.25
2022-08-05T17:14:00.427Z,102154.72
2022-08-05T17:16:36.033Z,102150.41
2022-08-05T17:19:07.542Z,102150.03
2022-08-05T17:21:37.032Z,102152.53
2022-08-05T17:24:28.266Z,102156.63
2022-08-05T17:26:56.364Z,102154.00
2022-08-05T17:29:33.484Z,102109.25
2022-08-05T17:32:04.730Z,102152.78
2022-08-05T17:34:34.777Z,102152.63
2022-08-05T17:37:02.559Z,102161.53
2022-08-05T17:39:34.565Z,102161.81
2022-08-05T17:42:18.474Z,102158.91
2022-08-05T17:44:50.047Z,102164.59
2022-08-05T17:47:22.177Z,102158.53
2022-08-05T17:50:03.561Z,102167.50
2022-08-05T17:52:32.599Z,102169.97
2022-08-05T17:55:03.152Z,102186.53
2022-08-05T17:57:30.729Z,102188.59
2022-08-05T18:00:04.805Z,102182.31
2022-08-05T18:02:33.430Z,102183.34
2022-08-05T18:05:06.292Z,102188.47
2022-08-05T18:07:41.147Z,102188.88
2022-08-05T18:10:11.619Z,102192.97
2022-08-05T18:12:48.231Z,102197.06
2022-08-05T18:15:15.667Z,102195.22
2022-08-05T18:17:59.272Z,102201.94
2022-08-05T18:20:31.623Z,102206.00
2022-08-05T18:23:11.230Z,102211.72
2022-08-05T18:25:45.207Z,102213.56
2022-08-05T18:28:16.470Z,102211.91
2022-08-05T18:30:44.511Z,102215.75
2022-08-05T18:33:13.493Z,102224.31
2022-08-05T18:36:00.817Z,102218.81
2022-08-05T18:38:29.006Z,102223.25
2022-08-05T18:41:55.543Z,102228.56
2022-08-05T18:43:48.609Z,102234.44
2022-08-05T18:46:19.901Z,102230.34
2022-08-05T18:48:48.074Z,102235.63
2022-08-05T18:52:04.972Z,102236.56
2022-08-05T18:54:28.594Z,102242.47
2022-08-05T18:57:00.863Z,102250.19
2022-08-05T18:59:44.409Z,102251.38
2022-08-05T19:02:27.928Z,102255.19
2022-08-05T19:05:02.354Z,102256.25
2022-08-05T19:07:46.646Z,102259.16
2022-08-05T19:10:14.564Z,102255.03
2022-08-05T19:12:43.500Z,102253.78
2022-08-05T19:15:50.670Z,102259.47
2022-08-05T19:18:10.326Z,102254.78
2022-08-05T19:20:46.583Z,102253.44
2022-08-05T19:24:03.796Z,102257.88
2022-08-05T19:26:02.919Z,102264.38
2022-08-05T19:28:32.895Z,102266.78
2022-08-05T19:31:01.019Z,102266.34
2022-08-05T19:33:34.038Z,102272.00
2022-08-05T19:36:06.582Z,102270.72
2022-08-05T19:38:35.871Z,102283.06
2022-08-05T19:41:07.329Z,102276.91
2022-08-05T19:44:06.549Z,102281.47
2022-08-05T19:46:30.433Z,102292.16
2022-08-05T19:49:03.166Z,102288.06
2022-08-05T19:52:05.462Z,102299.81
2022-08-05T19:54:26.813Z,102307.69
2022-08-05T19:56:58.499Z,102297.66
2022-08-05T19:59:55.307Z,102305.34
2022-08-05T20:02:22.454Z,102308.34
2022-08-05T20:04:51.629Z,102313.34
2022-08-05T20:07:46.486Z,102313.94
2022-08-05T20:10:13.217Z,102326.66
2022-08-05T20:12:47.710Z,102325.97
2022-08-05T20:15:47.786Z,102330.50
2022-08-05T20:18:10.252Z,102337.94
2022-08-05T20:20:55.253Z,102341.50
2022-08-05T20:23:24.172Z,102345.06
2022-08-05T20:26:08.765Z,102341.78
2022-08-05T20:28:44.202Z,102344.16
2022-08-05T20:31:13.762Z,102345.28
2022-08-05T20:33:44.714Z,102345.84
2022-08-05T20:36:12.428Z,102354.03
2022-08-05T20:38:53.993Z,102352.91
2022-08-05T20:41:43.129Z,102361.34
2022-08-05T20:44:17.735Z,102364.38
2022-08-05T20:46:48.779Z,102358.97
2022-08-05T20:49:18.449Z,102356.88
2022-08-05T20:51:53.602Z,102364.50
2022-08-05T20:54:21.700Z,102367.47
2022-08-05T20:56:49.186Z,102369.66
2022-08-05T20:59:19.352Z,102368.38
2022-08-05T21:01:57.905Z,102374.00
2022-08-05T21:04:30.168Z,102376.16
2022-08-05T21:06:57.620Z,102379.59
2022-08-05T21:09:25.575Z,102378.50
2022-08-05T21:12:10.241Z,102381.31
2022-08-05T21:14:38.762Z,102375.75
2022-08-05T21:17:07.706Z,102384.81
2022-08-05T21:19:47.582Z,102381.56
2022-08-05T21:22:21.900Z,102384.38
2022-08-05T21:24:51.558Z,102379.44
2022-08-05T21:27:20.541Z,102379.59
2022-08-05T21:29:52.424Z,102379.31
2022-08-05T21:32:23.406Z,102379.84
2022-08-05T21:35:09.031Z,102380.19
2022-08-05T21:37:41.001Z,102387.25
2022-08-05T21:40:13.653Z,102381.16
2022-08-05T21:42:45.291Z,102384.31
2022-08-05T21:45:24.076Z,102394.06
2022-08-05T21:47:58.008Z,102385.66
2022-08-05T21:50:25.821Z,102400.63
2022-08-05T21:52:53.363Z,102406.22
2022-08-05T21:56:01.253Z,102400.63
2022-08-05T21:58:10.537Z,102408.25
2022-08-05T22:00:40.108Z,102410.41
2022-08-05T22:03:10.183Z,102403.66
2022-08-05T22:05:48.781Z,102402.22
2022-08-05T22:08:22.578Z,102403.38
2022-08-05T22:10:53.246Z,102407.97
2022-08-05T22:14:34.175Z,102400.09
2022-08-05T22:16:32.186Z,102401.41
2022-08-05T22:18:58.775Z,102405.38
2022-08-05T22:21:26.433Z,102400.47
2022-08-05T22:24:13.227Z,102400.63
2022-08-05T22:27:17.439Z,102406.22
2022-08-05T22:29:45.907Z,102406.56
2022-08-05T22:32:17.473Z,102415.63
2022-08-05T22:34:46.542Z,102409.72
2022-08-05T22:37:14.012Z,102417.09
2022-08-05T22:39:41.539Z,102416.13
2022-08-05T22:42:15.331Z,102419.25
2022-08-05T22:44:56.653Z,102424.66
2022-08-05T22:47:29.148Z,102417.97
2022-08-05T22:50:21.041Z,102428.81
2022-08-05T22:52:46.939Z,102427.66
2022-08-05T22:55:19.242Z,102433.28
2022-08-05T22:57:48.848Z,102435.25
2022-08-05T23:00:18.325Z,102426.69
2022-08-05T23:02:48.785Z,102438.53
2022-08-05T23:05:18.206Z,102433.59
2022-08-05T23:07:48.847Z,102437.22
2022-08-05T23:10:20.217Z,102441.00
2022-08-05T23:12:51.574Z,102441.34
2022-08-05T23:15:22.389Z,102442.31
2022-08-05T23:18:01.458Z,102446.25
2022-08-05T23:20:31.452Z,102447.25
2022-08-05T23:23:00.106Z,102454.50
2022-08-05T23:25:51.131Z,102459.75
2022-08-05T23:28:15.842Z,102456.47
2022-08-05T23:30:53.545Z,102462.84
2022-08-05T23:33:26.214Z,102470.41
2022-08-05T23:36:13.484Z,102468.59
2022-08-05T23:38:41.471Z,102471.22
2022-08-05T23:41:10.414Z,102474.00
2022-08-05T23:44:04.840Z,102475.03
2022-08-05T23:46:25.773Z,102484.03
2022-08-05T23:48:59.876Z,102479.09
2022-08-05T23:51:52.378Z,102483.66
2022-08-05T23:54:25.746Z,102482.34
2022-08-05T23:56:54.452Z,102484.00
2022-08-05T23:59:22.473Z,102485.78
